Aeroporto :
LOGIN :

Iscrizione | Disclaimer

   EN    FR    IT 

 










Sommario :    VFR   VFR Marginale   IFR   IFR Intensivo   IFR Molto Intensivo
Visibilità : 
Base nubi : 
>= 8 km
>= 3000ft
5 / 8 km
1000 / 3000 ft
1500m / 5 km
500 / 1000 ft
800 / 1500m
200 / 500 ft
< 800m
< 200 ft
Simboli :   Temporali  Nebbia  Neve Forte  Precipitazioni Forti  Vento > 20 kt
SIGMETs :   Varie  Temporali  Ghiacco  Turbolenza  Onda orograficha  Ceneri Vulcaniche






- Altitudine del aeroporto : 34 ft
- Codice IATA : KRF


ESNK - Kramfors Sollefteå

ULTIMO METAR :
  • 140120Z AUTO 33002KT 9999 SCT062/// BKN110/// 13/13 Q1013

METARs OBSOLETI :
  • 140050Z AUTO 17001KT 9999 BKN200/// 13/13 Q1013
  • 140020Z AUTO VRB03KT 9999 SCT098/// BKN200/// 13/12 Q1013
  • 132350Z AUTO 17002KT 9999 BKN062/// BKN190/// 14/13 Q1014
  • 132320Z AUTO 19003KT 9999 SCT061/// BKN094/// 14/13 Q1014
  • 132250Z AUTO 00000KT 9999 SCT094/// 15/14 Q1014

Previsioni scadute.



MetMap, La meteo Aeronautica in un colpo d'occhio ! - Copyright ORBIFLY Dicembre 2007 - Disclaimer

ORBIFLY MET'MAP TEAM :

Programmazione e sviluppo : Alexandra Zaïnal
Concezione : Baudouin d'Aumeries
Aiuto per la programmazione : Marc-Olivier Méhu
Supporto tecnico e logistico : Manuel Goepfert
Aiuto per la traduzione : Arnaldo La Scala

Contatto : metmap@orbifly.com




FONTI E CREDITI :

   NOAA